Terminal Aerodrome Forecast
Issued by NWS

Home | Current Version | Previous Version | Text Only | Print | Product List | Glossary Off
Versions: 1 2 3 4 5 6 7 8 9 10 11 12

264
FTUS43 KFGF 271722
TAFBJI
TAF
KBJI 271722Z 2718/2818 01007KT P6SM SCT100
      TEMPO 2718/2719 BKN100
     FM280400 VRB06KT P6SM FEW120=

USA.gov is the U.S. government's official web portal to all federal, state and local government web resources and services.